Time;durP1;ratioP1;P1;durP2;ratioP2;P2;SDS_P1;SDS_P2;PMS_P1;PMS_P2;Temp;Humidity;BMP_temperature;BMP_pressure;BME280_temperature;BME280_humidity;BME280_pressure;Samples;Min_cycle;Max_cycle;Signal;HPM_P1;HPM_P2
2022/03/14 00:01:14;;;;;;;209.07;172.45;;;;;;;15.27;25.19;93680.19;5016085;28;20406;-63
2022/03/14 00:03:47;;;;;;;208.48;175.48;;;;;;;15.27;25.10;93685.56;5015205;28;20117;-63
2022/03/14 00:06:14;;;;;;;204.95;170.80;;;;;;;15.26;25.29;93686.78;5014401;28;20073;-63
2022/03/14 00:08:40;;;;;;;204.10;169.30;;;;;;;15.26;25.15;93700.25;5013160;28;20045;-63
2022/03/14 00:11:06;;;;;;;224.43;190.02;;;;;;;15.26;25.43;93694.84;5012459;28;20141;-64
2022/03/14 00:13:33;;;;;;;224.07;184.77;;;;;;;15.26;25.31;93696.78;5019521;28;20069;-63
2022/03/14 00:15:59;;;;;;;208.68;176.93;;;;;;;15.27;25.29;93698.28;5010803;28;20049;-62
2022/03/14 00:18:27;;;;;;;219.30;186.48;;;;;;;15.26;25.29;93697.53;5010947;28;20058;-63
2022/03/14 00:20:52;;;;;;;214.55;179.55;;;;;;;15.26;25.39;93697.53;5012308;28;20068;-63
2022/03/14 00:23:18;;;;;;;214.15;178.75;;;;;;;15.28;25.39;93703.25;5014013;28;20494;-63
2022/03/14 00:25:44;;;;;;;212.02;178.27;;;;;;;15.27;25.49;93701.00;5018335;28;20054;-62
2022/03/14 00:28:10;;;;;;;212.35;175.95;;;;;;;15.26;25.47;93710.25;5015946;28;20052;-63
2022/03/14 00:30:35;;;;;;;212.75;178.18;;;;;;;15.26;25.47;93710.25;5014726;28;20050;-62
2022/03/14 00:33:02;;;;;;;209.23;172.80;;;;;;;15.26;25.46;93710.25;5013322;28;20052;-62
2022/03/14 00:35:27;;;;;;;211.85;173.75;;;;;;;15.25;25.34;93716.84;5017139;28;20183;-62
2022/03/14 00:37:53;;;;;;;210.70;177.50;;;;;;;15.26;25.54;93732.56;5019384;28;20113;-62
2022/03/14 00:40:19;;;;;;;214.75;176.63;;;;;;;15.24;25.48;93726.88;5007972;28;20072;-63
2022/03/14 00:42:46;;;;;;;215.50;182.48;;;;;;;15.26;25.46;93743.34;5015277;28;20068;-63
2022/03/14 00:45:11;;;;;;;217.00;182.57;;;;;;;15.23;25.55;93736.13;5011555;28;20049;-63
2022/03/14 00:47:37;;;;;;;206.80;175.52;;;;;;;15.24;25.50;93737.66;5012768;28;20042;-64
2022/03/14 00:50:03;;;;;;;212.55;174.48;;;;;;;15.24;25.53;93743.03;5011804;28;20062;-64
2022/03/14 00:52:29;;;;;;;212.68;177.63;;;;;;;15.23;25.42;93746.91;5015644;28;20587;-63
2022/03/14 00:54:54;;;;;;;210.20;176.52;;;;;;;15.25;25.51;93754.56;5011802;28;20117;-63
2022/03/14 00:57:20;;;;;;;204.95;172.25;;;;;;;15.26;25.41;93753.38;5018986;28;20104;-63
2022/03/14 00:59:46;;;;;;;208.60;172.30;;;;;;;15.23;25.55;93763.09;5009952;28;20180;-62
2022/03/14 01:02:11;;;;;;;211.13;172.60;;;;;;;15.23;25.67;93770.41;5009476;28;20045;-63
2022/03/14 01:04:37;;;;;;;211.90;181.70;;;;;;;15.26;25.41;93783.00;5011850;28;20041;-63
2022/03/14 01:07:03;;;;;;;209.30;174.38;;;;;;;15.26;25.53;93791.09;5015299;28;20069;-63
2022/03/14 01:09:29;;;;;;;213.02;178.60;;;;;;;15.24;25.54;93788.81;5012941;28;20107;-61
2022/03/14 01:11:55;;;;;;;206.85;170.57;;;;;;;15.24;25.50;93791.53;5024134;28;20126;-63
2022/03/14 01:14:22;;;;;;;206.32;169.07;;;;;;;15.21;25.63;93789.72;5009224;28;20046;-63
2022/03/14 01:16:48;;;;;;;207.95;176.90;;;;;;;15.23;25.60;93794.66;5008715;28;20111;-63
2022/03/14 01:19:15;;;;;;;205.75;177.40;;;;;;;15.24;25.57;93796.91;5014770;28;20061;-63
2022/03/14 01:21:41;;;;;;;227.70;190.90;;;;;;;15.25;25.63;93808.44;5013703;28;20130;-62
2022/03/14 01:24:07;;;;;;;207.65;172.15;;;;;;;15.23;25.61;93800.78;5014480;28;20491;-63
2022/03/14 01:26:34;;;;;;;218.70;181.90;;;;;;;15.24;25.62;93799.59;5009398;28;20042;-63
2022/03/14 01:29:01;;;;;;;212.35;178.10;;;;;;;15.23;25.61;93803.50;5015819;28;20081;-63
2022/03/14 01:31:27;;;;;;;222.48;182.95;;;;;;;15.22;25.94;93804.69;5010078;28;20042;-62
2022/03/14 01:33:53;;;;;;;210.38;174.48;;;;;;;15.20;25.46;93795.53;5013069;28;20052;-62
2022/03/14 01:36:18;;;;;;;217.48;183.27;;;;;;;15.22;25.55;93795.84;5009733;28;20033;-61
2022/03/14 01:38:44;;;;;;;206.70;176.65;;;;;;;15.23;25.63;93789.25;5017019;28;20054;-63
2022/03/14 01:41:10;;;;;;;224.57;182.60;;;;;;;15.23;25.68;93805.44;5011825;28;20084;-62
2022/03/14 01:43:36;;;;;;;209.32;172.63;;;;;;;15.22;25.63;93809.31;5011304;28;20044;-63
2022/03/14 01:46:02;;;;;;;207.52;173.25;;;;;;;15.22;25.63;93803.94;5013025;28;20132;-63
2022/03/14 01:48:28;;;;;;;207.35;171.45;;;;;;;15.21;25.70;93818.59;5012117;28;20053;-63
2022/03/14 01:50:53;;;;;;;227.48;184.65;;;;;;;15.21;25.58;93832.06;5013361;28;20046;-63
2022/03/14 01:53:20;;;;;;;217.50;177.40;;;;;;;15.20;25.56;93830.56;5004918;28;20504;-62
2022/03/14 01:55:48;;;;;;;207.45;172.48;;;;;;;15.21;25.50;93835.50;5002027;28;20220;-63
2022/03/14 01:58:14;;;;;;;210.20;173.60;;;;;;;15.21;25.56;93830.13;5007883;28;20064;-62
2022/03/14 02:00:41;;;;;;;222.25;183.63;;;;;;;15.20;25.45;93806.31;5008770;28;20046;-63
2022/03/14 02:03:06;;;;;;;208.30;171.95;;;;;;;15.20;25.44;93804.38;5012760;28;20120;-63
2022/03/14 02:05:37;;;;;;;210.45;173.75;;;;;;;15.22;25.57;93828.16;5012508;28;20451;-63
2022/03/14 02:08:07;;;;;;;231.68;191.25;;;;;;;15.21;25.67;93848.22;5004601;28;20048;-63
2022/03/14 02:10:34;;;;;;;227.40;188.85;;;;;;;15.20;25.58;93866.31;5003023;28;20060;-63
2022/03/14 02:13:08;;;;;;;210.73;175.68;;;;;;;15.20;25.59;93865.56;5012553;28;20042;-61
2022/03/14 02:15:34;;;;;;;210.93;175.20;;;;;;;15.19;25.66;93875.59;5007382;28;20058;-62
2022/03/14 02:18:00;;;;;;;209.55;177.45;;;;;;;15.18;25.45;93867.94;5011178;28;20080;-62
2022/03/14 02:20:26;;;;;;;224.20;185.82;;;;;;;15.20;25.55;93862.88;5018097;28;20038;-62
2022/03/14 02:22:52;;;;;;;210.05;174.32;;;;;;;15.19;25.48;93869.44;5016952;28;20081;-63
2022/03/14 02:25:17;;;;;;;210.50;174.80;;;;;;;15.21;25.29;93888.63;5011779;28;20111;-63
2022/03/14 02:27:43;;;;;;;206.13;174.52;;;;;;;15.20;25.64;93892.50;5015158;28;20110;-63
2022/03/14 02:30:09;;;;;;;210.80;171.45;;;;;;;15.20;25.72;93903.28;5015156;28;20119;-62
2022/03/14 02:32:39;;;;;;;222.18;183.93;;;;;;;15.18;25.81;93914.50;5013870;28;20121;-62
2022/03/14 02:35:05;;;;;;;217.15;182.27;;;;;;;15.19;25.70;93934.84;5011570;28;20124;-63
2022/03/14 02:37:31;;;;;;;211.43;176.65;;;;;;;15.14;25.52;93930.78;5013533;28;20426;-63
2022/03/14 02:39:56;;;;;;;210.75;174.65;;;;;;;15.18;25.75;93935.28;5016322;28;20049;-63
2022/03/14 02:42:22;;;;;;;209.55;176.25;;;;;;;15.18;25.58;93964.94;5011259;28;20115;-62
2022/03/14 02:44:48;;;;;;;204.80;169.80;;;;;;;15.15;25.70;93974.63;5014441;28;20038;-63
2022/03/14 02:47:13;;;;;;;210.88;175.75;;;;;;;15.15;25.49;93994.25;5014553;28;20040;-62
2022/03/14 02:49:39;;;;;;;212.93;177.57;;;;;;;15.17;25.70;94004.56;5011664;28;20034;-63
2022/03/14 02:52:05;;;;;;;211.07;174.95;;;;;;;15.18;25.62;94010.72;5006295;28;20054;-62
2022/03/14 02:54:31;;;;;;;213.65;180.60;;;;;;;15.18;25.59;94024.94;5015619;28;20140;-62
2022/03/14 02:56:57;;;;;;;213.27;179.05;;;;;;;15.19;25.64;94026.44;5012141;28;20048;-63
2022/03/14 02:59:23;;;;;;;216.45;180.82;;;;;;;15.14;25.34;94038.53;5006416;28;20056;-62
2022/03/14 03:01:48;;;;;;;219.90;178.95;;;;;;;15.13;25.31;94033.56;5014191;28;20139;-62
2022/03/14 03:04:14;;;;;;;208.77;176.07;;;;;;;15.11;25.39;94036.69;5014581;28;20037;-61
2022/03/14 03:06:40;;;;;;;208.93;173.63;;;;;;;15.06;25.23;94036.50;5008308;28;20366;-63
2022/03/14 03:09:06;;;;;;;208.88;172.32;;;;;;;15.08;25.33;94044.88;5012631;28;20034;-63
2022/03/14 03:11:32;;;;;;;220.68;183.90;;;;;;;15.05;25.38;94051.91;5009911;28;20050;-62
2022/03/14 03:13:59;;;;;;;206.02;168.98;;;;;;;15.03;25.40;94056.22;5012999;28;20052;-63
2022/03/14 03:16:25;;;;;;;204.48;170.18;;;;;;;14.99;25.46;94050.94;5006532;28;20124;-63
2022/03/14 03:18:51;;;;;;;207.55;173.30;;;;;;;15.02;25.56;94066.22;5006609;28;20122;-62
2022/03/14 03:21:16;;;;;;;211.48;176.30;;;;;;;15.06;25.52;94082.28;5015323;28;20196;-63
2022/03/14 03:23:42;;;;;;;216.68;176.32;;;;;;;15.04;25.53;94084.66;5009662;28;20083;-63
2022/03/14 03:26:08;;;;;;;220.50;177.35;;;;;;;15.05;25.53;94094.22;5014641;28;20042;-62
2022/03/14 03:28:37;;;;;;;213.25;177.23;;;;;;;15.10;25.57;94105.22;5020941;28;20154;-62
2022/03/14 03:31:16;;;;;;;230.05;186.75;;;;;;;15.10;25.60;94107.91;5017691;28;20049;-63
2022/03/14 03:33:43;;;;;;;225.13;185.18;;;;;;;15.13;25.61;94125.16;5000704;28;20429;-62
2022/03/14 03:36:08;;;;;;;236.45;191.88;;;;;;;15.10;25.85;94116.00;5004814;28;20076;-61
2022/03/14 03:38:35;;;;;;;229.75;185.13;;;;;;;15.12;25.78;94115.56;5004895;28;20050;-62
2022/03/14 03:41:01;;;;;;;219.45;177.77;;;;;;;15.10;26.21;94120.63;5017787;28;20049;-62
2022/03/14 03:43:27;;;;;;;209.27;173.90;;;;;;;15.03;26.41;94121.59;5017424;28;20498;-62
2022/03/14 03:45:52;;;;;;;211.57;174.57;;;;;;;15.01;26.50;94129.34;5013156;28;20041;-63
2022/03/14 03:48:18;;;;;;;212.13;175.13;;;;;;;15.01;26.30;94129.34;5010965;28;20038;-62
2022/03/14 03:50:45;;;;;;;216.18;177.02;;;;;;;15.02;26.50;94141.63;5017883;28;20114;-62
2022/03/14 03:53:10;;;;;;;212.23;176.20;;;;;;;15.03;26.75;94142.38;5016710;28;20126;-63
2022/03/14 03:55:36;;;;;;;221.63;183.75;;;;;;;15.00;26.80;94135.16;5011115;28;20049;-62
2022/03/14 03:58:02;;;;;;;220.38;179.15;;;;;;;15.03;27.02;94147.78;5017840;28;20041;-62
2022/03/14 04:00:27;;;;;;;218.98;180.57;;;;;;;15.03;26.94;94155.84;5013103;28;20406;-61
2022/03/14 04:02:53;;;;;;;212.65;178.13;;;;;;;15.03;27.08;94177.41;5013260;28;20068;-63
2022/03/14 04:05:20;;;;;;;211.02;173.18;;;;;;;15.05;27.07;94177.72;5017983;28;20038;-64
2022/03/14 04:07:46;;;;;;;214.93;176.50;;;;;;;15.03;27.08;94182.78;5017123;28;20065;-63
2022/03/14 04:10:15;;;;;;;224.32;184.68;;;;;;;15.00;27.53;94195.16;5016319;28;20041;-64
2022/03/14 04:12:44;;;;;;;214.18;177.90;;;;;;;14.99;27.30;94187.53;5013201;28;20065;-63
2022/03/14 04:15:10;;;;;;;209.02;171.40;;;;;;;15.00;27.57;94197.88;5021268;28;20045;-63
2022/03/14 04:17:38;;;;;;;214.60;177.95;;;;;;;14.98;27.94;94205.63;5015769;28;20131;-62
2022/03/14 04:20:06;;;;;;;216.48;178.50;;;;;;;14.98;27.80;94219.09;5021075;28;20502;-63
2022/03/14 04:22:32;;;;;;;211.60;172.38;;;;;;;14.96;27.98;94224.16;5016531;28;20049;-63
2022/03/14 04:24:59;;;;;;;212.27;173.88;;;;;;;14.95;28.05;94219.22;5024014;28;20054;-63
2022/03/14 04:27:26;;;;;;;211.73;177.02;;;;;;;14.97;28.03;94232.97;5015381;28;20050;-63
2022/03/14 04:29:52;;;;;;;210.93;172.95;;;;;;;14.96;28.20;94228.78;5012030;28;20120;-63
2022/03/14 04:32:18;;;;;;;211.32;173.65;;;;;;;14.96;28.17;94223.38;5018909;28;20489;-63
2022/03/14 04:34:44;;;;;;;214.63;174.27;;;;;;;14.97;28.23;94239.13;5016056;28;20131;-62
2022/03/14 04:37:11;;;;;;;211.20;173.00;;;;;;;14.98;28.29;94239.88;5008982;28;20362;-64
2022/03/14 04:39:36;;;;;;;215.02;175.82;;;;;;;14.98;28.08;94253.34;5010978;28;20120;-62
2022/03/14 04:42:02;;;;;;;211.95;173.98;;;;;;;14.98;28.58;94246.00;5013316;28;20077;-64
2022/03/14 04:44:28;;;;;;;213.02;174.57;;;;;;;15.00;28.33;94256.34;5016325;28;20895;-64
2022/03/14 04:46:54;;;;;;;211.25;170.23;;;;;;;14.97;28.27;94263.34;5016841;28;20052;-63
2022/03/14 04:49:19;;;;;;;212.90;174.05;;;;;;;14.98;28.50;94272.94;5013735;28;20042;-63
2022/03/14 04:51:49;;;;;;;206.77;169.05;;;;;;;15.00;28.40;94267.88;5011899;28;20064;-63
2022/03/14 04:54:15;;;;;;;214.32;178.02;;;;;;;15.00;28.48;94277.91;5015490;28;20384;-63
2022/03/14 04:56:40;;;;;;;212.27;175.90;;;;;;;14.97;28.55;94276.81;5015270;28;20127;-64
2022/03/14 04:59:06;;;;;;;213.13;173.45;;;;;;;14.98;28.42;94282.97;5015643;28;20037;-63
2022/03/14 05:01:31;;;;;;;217.20;178.70;;;;;;;14.98;28.60;94291.78;5013222;28;20052;-63
2022/03/14 05:03:57;;;;;;;212.35;173.85;;;;;;;14.97;28.75;94287.59;5010532;28;20038;-62
2022/03/14 05:06:22;;;;;;;210.10;171.00;;;;;;;15.01;28.76;94298.25;5012159;28;20058;-62
2022/03/14 05:08:48;;;;;;;210.27;173.82;;;;;;;15.02;28.92;94305.91;5010891;28;20053;-63
2022/03/14 05:11:14;;;;;;;222.93;183.30;;;;;;;15.04;28.75;94308.19;5010405;28;20050;-65
2022/03/14 05:13:41;;;;;;;212.88;173.60;;;;;;;15.05;28.73;94317.78;5013198;28;20049;-64
2022/03/14 05:16:07;;;;;;;221.85;180.35;;;;;;;15.07;28.83;94324.25;5021441;28;20049;-64
2022/03/14 05:18:34;;;;;;;210.65;171.38;;;;;;;15.05;28.86;94318.53;5016010;28;20054;-63
2022/03/14 05:21:01;;;;;;;229.00;183.05;;;;;;;15.02;29.20;94322.09;5015279;28;20052;-63
2022/03/14 05:23:28;;;;;;;211.48;172.15;;;;;;;15.03;29.37;94325.53;5013948;28;20049;-63
2022/03/14 05:25:54;;;;;;;237.38;192.93;;;;;;;15.05;29.19;94331.25;5011837;28;20059;-61
2022/03/14 05:28:20;;;;;;;210.13;171.50;;;;;;;15.08;29.32;94338.47;5010489;28;20051;-63
2022/03/14 05:30:46;;;;;;;216.35;172.88;;;;;;;15.08;29.20;94341.94;5018732;28;20120;-66
2022/03/14 05:33:11;;;;;;;210.50;174.35;;;;;;;15.14;29.03;94352.94;5014339;28;20041;-63
2022/03/14 05:35:37;;;;;;;213.32;173.82;;;;;;;15.18;28.65;94353.59;5014066;28;20045;-63
2022/03/14 05:38:02;;;;;;;207.63;167.77;;;;;;;15.18;29.01;94356.28;5009161;28;20738;-63
2022/03/14 05:40:28;;;;;;;225.45;179.13;;;;;;;15.16;29.28;94372.88;5006035;28;20076;-63
2022/03/14 05:42:54;;;;;;;208.15;171.18;;;;;;;14.97;29.33;94373.78;5013094;28;20418;-60
2022/03/14 05:45:20;;;;;;;212.35;174.68;;;;;;;15.05;29.47;94375.09;5012442;28;20156;-63
2022/03/14 05:47:46;;;;;;;210.35;175.68;;;;;;;15.12;29.61;94382.22;5022724;28;20056;-61
2022/03/14 05:50:12;;;;;;;226.20;182.40;;;;;;;15.13;29.53;94384.50;5026246;28;20427;-62
2022/03/14 05:52:38;;;;;;;211.93;177.45;;;;;;;15.17;29.41;94392.50;5015717;28;20042;-64
2022/03/14 05:55:05;;;;;;;215.45;178.00;;;;;;;15.19;29.38;94392.81;5014749;28;20073;-62
2022/03/14 05:57:32;;;;;;;227.77;183.52;;;;;;;15.22;28.78;94404.69;5004426;28;20053;-63
2022/03/14 05:59:58;;;;;;;206.60;168.18;;;;;;;15.18;29.39;94414.81;5006165;28;20045;-63
2022/03/14 06:02:24;;;;;;;212.85;173.35;;;;;;;15.20;29.19;94421.28;5014051;28;20110;-62
2022/03/14 06:04:53;;;;;;;220.13;180.52;;;;;;;15.21;29.04;94425.50;5009708;28;20113;-63
2022/03/14 06:07:21;;;;;;;212.27;173.15;;;;;;;15.20;29.22;94423.97;5009556;28;20053;-63
2022/03/14 06:09:50;;;;;;;212.80;173.82;;;;;;;15.22;29.22;94428.94;5012087;28;20462;-62
2022/03/14 06:12:27;;;;;;;210.05;172.52;;;;;;;15.22;29.04;94424.31;5012458;28;20111;-63
2022/03/14 06:14:54;;;;;;;208.80;175.23;;;;;;;15.22;29.24;94439.72;5007640;28;20057;-62
2022/03/14 06:17:19;;;;;;;212.15;176.15;;;;;;;15.23;29.31;94449.31;5007239;28;20099;-63
2022/03/14 06:19:45;;;;;;;214.35;176.63;;;;;;;15.21;29.22;94457.81;5011365;28;21379;-63
2022/03/14 06:22:11;;;;;;;209.25;173.60;;;;;;;15.19;29.48;94456.72;5008136;28;20099;-63
2022/03/14 06:24:36;;;;;;;209.63;171.32;;;;;;;15.21;29.38;94462.44;5020152;28;20095;-64
2022/03/14 06:27:03;;;;;;;214.63;178.85;;;;;;;15.16;29.32;94467.16;5010103;28;20378;-63
2022/03/14 06:29:28;;;;;;;209.48;174.23;;;;;;;15.19;29.54;94470.94;5010489;28;20077;-60
2022/03/14 06:31:54;;;;;;;204.82;169.13;;;;;;;15.19;29.65;94464.81;5012814;28;20077;-63
2022/03/14 06:34:21;;;;;;;208.32;173.02;;;;;;;15.20;29.75;94477.84;5006589;28;20491;-63
2022/03/14 06:36:47;;;;;;;205.80;171.13;;;;;;;15.19;29.72;94476.34;5012821;28;20045;-63
2022/03/14 06:39:12;;;;;;;214.68;179.25;;;;;;;15.22;29.59;94483.56;5020445;28;20524;-64
2022/03/14 06:41:38;;;;;;;208.25;169.82;;;;;;;15.23;29.51;94485.09;5017641;28;20041;-62
2022/03/14 06:44:04;;;;;;;204.05;167.00;;;;;;;15.26;29.24;94489.63;5010006;28;20184;-62
2022/03/14 06:46:30;;;;;;;219.07;181.20;;;;;;;15.24;29.53;94489.31;5006066;28;20129;-63
2022/03/14 06:48:55;;;;;;;203.75;168.75;;;;;;;15.23;29.51;94495.13;5008782;28;20650;-62
2022/03/14 06:51:21;;;;;;;214.25;177.45;;;;;;;15.22;29.57;94493.59;5010424;28;20079;-63
2022/03/14 06:53:47;;;;;;;208.60;172.45;;;;;;;15.26;29.40;94496.97;5030498;28;20132;-63
2022/03/14 06:56:15;;;;;;;208.45;175.02;;;;;;;15.26;29.19;94505.03;5016798;28;20053;-63
2022/03/14 06:58:41;;;;;;;207.48;175.63;;;;;;;15.29;29.39;94501.50;5021368;28;20034;-63
2022/03/14 07:01:07;;;;;;;219.65;184.77;;;;;;;15.28;29.55;94505.38;5024631;28;20569;-63
2022/03/14 07:03:33;;;;;;;209.90;176.02;;;;;;;15.24;29.50;94494.69;5007279;28;20510;-63
2022/03/14 07:05:59;;;;;;;210.88;178.10;;;;;;;15.24;29.71;94502.78;5007672;28;20054;-63
2022/03/14 07:08:25;;;;;;;210.02;174.48;;;;;;;15.24;29.71;94507.41;5008441;28;20046;-63
2022/03/14 07:10:50;;;;;;;215.38;175.98;;;;;;;15.26;29.84;94502.34;5030177;28;20397;-63
2022/03/14 07:13:16;;;;;;;213.15;173.90;;;;;;;15.26;29.63;94511.19;5019983;28;20042;-64
2022/03/14 07:15:41;;;;;;;211.50;175.57;;;;;;;15.28;29.49;94508.84;5011682;28;20645;-62
2022/03/14 07:18:07;;;;;;;209.55;171.45;;;;;;;15.28;29.55;94519.59;5023195;28;20038;-63
2022/03/14 07:20:33;;;;;;;203.40;169.35;;;;;;;15.29;29.51;94521.13;5025925;28;20486;-61
2022/03/14 07:23:00;;;;;;;213.82;177.95;;;;;;;15.28;29.67;94533.09;5006617;28;20095;-62
2022/03/14 07:25:28;;;;;;;208.65;174.65;;;;;;;15.26;29.85;94546.22;5011347;28;20049;-61
2022/03/14 07:27:56;;;;;;;209.20;172.05;;;;;;;15.23;29.83;94541.69;5010139;28;20050;-64
2022/03/14 07:30:22;;;;;;;208.27;171.43;;;;;;;15.26;29.78;94545.47;5023700;28;20465;-65
2022/03/14 07:32:49;;;;;;;200.95;169.75;;;;;;;15.27;29.90;94555.06;5010061;28;20037;-63
2022/03/14 07:35:15;;;;;;;207.38;170.70;;;;;;;15.25;29.90;94546.63;5019597;28;20041;-63
2022/03/14 07:37:41;;;;;;;223.30;187.57;;;;;;;15.27;29.85;94561.22;5009393;28;20042;-63
2022/03/14 07:40:09;;;;;;;212.13;177.40;;;;;;;15.30;29.71;94556.91;5015916;28;20041;-63
2022/03/14 07:42:43;;;;;;;201.40;169.27;;;;;;;15.27;29.62;94566.59;5018217;28;20050;-65
2022/03/14 07:45:10;;;;;;;207.55;174.93;;;;;;;15.32;29.38;94578.81;5009904;28;20061;-65
2022/03/14 07:47:36;;;;;;;208.63;170.13;;;;;;;15.32;29.63;94581.50;5009630;28;20042;-65
2022/03/14 07:50:05;;;;;;;205.43;168.43;;;;;;;15.33;29.42;94591.84;5008838;28;20045;-65
2022/03/14 07:52:31;;;;;;;202.57;166.45;;;;;;;15.33;29.59;94591.09;5006151;28;20038;-64
2022/03/14 07:54:56;;;;;;;213.45;180.40;;;;;;;15.30;29.50;94579.22;5014667;28;20046;-65
2022/03/14 07:57:22;;;;;;;221.88;181.52;;;;;;;15.32;29.43;94582.25;5022577;28;20067;-64
2022/03/14 07:59:48;;;;;;;203.52;170.00;;;;;;;15.34;29.28;94587.22;5026064;28;20045;-62
2022/03/14 08:02:13;;;;;;;206.48;172.80;;;;;;;15.34;29.65;94598.75;5014900;28;20530;-61
2022/03/14 08:04:40;;;;;;;208.07;173.98;;;;;;;15.35;29.40;94594.88;5010952;28;20505;-61
2022/03/14 08:07:06;;;;;;;210.02;174.52;;;;;;;15.35;29.67;94591.44;5011108;28;20049;-62
2022/03/14 08:09:32;;;;;;;209.00;175.32;;;;;;;15.34;29.58;94593.38;5010512;28;20049;-61
2022/03/14 08:12:04;;;;;;;212.00;175.10;;;;;;;15.34;29.68;94598.00;5010848;28;20404;-62
2022/03/14 08:14:31;;;;;;;208.52;172.23;;;;;;;15.36;29.47;94595.66;5013815;28;20479;-63
2022/03/14 08:16:57;;;;;;;210.50;173.38;;;;;;;15.33;30.08;94602.63;5028783;28;20366;-62
2022/03/14 08:19:23;;;;;;;206.27;169.88;;;;;;;15.32;29.93;94601.13;5023091;28;20058;-60
2022/03/14 08:21:51;;;;;;;207.73;170.68;;;;;;;15.29;30.42;94609.28;5022944;28;20516;-60
2022/03/14 08:24:17;;;;;;;220.02;180.27;;;;;;;15.29;30.15;94603.91;5017238;28;20125;-62
2022/03/14 08:26:44;;;;;;;204.15;169.63;;;;;;;15.31;30.08;94601.53;5012481;28;20125;-62
2022/03/14 08:29:09;;;;;;;214.15;173.38;;;;;;;15.34;30.00;94604.16;5010791;28;20050;-61
2022/03/14 08:31:36;;;;;;;207.07;168.38;;;;;;;15.34;30.14;94606.84;5022919;28;20525;-63
2022/03/14 08:34:01;;;;;;;204.30;171.02;;;;;;;15.31;30.53;94607.69;5018673;28;20042;-62
2022/03/14 08:36:28;;;;;;;214.02;176.30;;;;;;;15.32;30.46;94613.84;5011929;28;20084;-62
2022/03/14 08:38:54;;;;;;;206.40;171.38;;;;;;;15.30;30.73;94608.09;5020719;28;20375;-63
2022/03/14 08:41:19;;;;;;;207.43;173.98;;;;;;;15.31;30.62;94615.78;5023290;28;20503;-62
2022/03/14 08:43:46;;;;;;;208.18;171.32;;;;;;;15.29;30.36;94617.38;5008896;28;20050;-62
2022/03/14 08:46:15;;;;;;;200.10;164.98;;;;;;;15.32;30.44;94619.97;5026034;28;20045;-62
2022/03/14 08:48:41;;;;;;;204.70;168.88;;;;;;;15.32;30.47;94630.00;5020974;28;20054;-62
2022/03/14 08:51:07;;;;;;;210.90;171.77;;;;;;;15.36;30.09;94634.13;5021366;28;20057;-62
2022/03/14 08:53:33;;;;;;;210.45;175.88;;;;;;;15.37;29.88;94630.25;5014570;28;20577;-62
2022/03/14 08:56:02;;;;;;;204.45;169.50;;;;;;;15.36;30.08;94638.75;5019854;28;20079;-60
2022/03/14 08:58:31;;;;;;;203.57;163.43;;;;;;;15.37;29.82;94632.97;5022759;28;20731;-61
2022/03/14 09:00:58;;;;;;;220.60;180.30;;;;;;;15.39;29.88;94632.53;5016507;28;20068;-63
2022/03/14 09:03:24;;;;;;;199.85;164.35;;;;;;;15.37;29.81;94627.56;5023159;28;20085;-62
2022/03/14 09:05:50;;;;;;;214.70;178.98;;;;;;;15.35;30.01;94629.94;5015964;28;20038;-62
2022/03/14 09:08:17;;;;;;;207.77;173.93;;;;;;;15.35;29.86;94631.84;5020840;28;20038;-62
2022/03/14 09:10:42;;;;;;;215.05;179.73;;;;;;;15.32;30.07;94648.88;5007977;28;20065;-61
2022/03/14 09:13:08;;;;;;;208.13;172.85;;;;;;;15.33;30.06;94642.31;5009264;28;20442;-63
2022/03/14 09:15:33;;;;;;;206.77;171.38;;;;;;;15.33;30.10;94634.22;5013419;28;20076;-61
2022/03/14 09:17:59;;;;;;;201.77;168.30;;;;;;;15.32;30.36;94638.09;5015331;28;20405;-61
2022/03/14 09:20:27;;;;;;;213.77;176.80;;;;;;;15.33;30.12;94647.69;5011731;28;20057;-62
2022/03/14 09:22:53;;;;;;;218.65;182.48;;;;;;;15.29;30.38;94650.47;5023736;28;20045;-62
2022/03/14 09:25:21;;;;;;;211.05;174.77;;;;;;;15.32;30.23;94638.84;5018933;28;20041;-61
2022/03/14 09:27:48;;;;;;;210.18;173.30;;;;;;;15.36;30.11;94644.16;5010329;28;20046;-61
2022/03/14 09:30:15;;;;;;;205.07;169.15;;;;;;;15.39;29.85;94643.31;5019936;28;20146;-61
2022/03/14 09:32:41;;;;;;;243.45;195.55;;;;;;;15.39;29.93;94640.63;5001836;28;20077;-62
2022/03/14 09:35:09;;;;;;;226.27;183.73;;;;;;;15.40;29.71;94632.13;4997785;28;20049;-62
2022/03/14 09:37:39;;;;;;;223.65;182.57;;;;;;;15.37;30.01;94640.28;4996622;28;20046;-62
2022/03/14 09:40:10;;;;;;;211.07;178.23;;;;;;;15.39;29.81;94637.94;5016230;28;20045;-61
2022/03/14 09:42:42;;;;;;;223.77;184.65;;;;;;;15.36;29.92;94636.06;5006049;28;20055;-61
2022/03/14 09:45:10;;;;;;;214.07;179.15;;;;;;;15.36;29.83;94636.06;5012561;28;20409;-62
2022/03/14 09:47:41;;;;;;;206.30;169.30;;;;;;;15.39;29.81;94638.69;5016422;28;20056;-62
2022/03/14 09:50:11;;;;;;;203.70;167.02;;;;;;;15.39;29.92;94635.22;5009363;28;20040;-62
2022/03/14 09:52:40;;;;;;;201.52;166.68;;;;;;;15.36;29.78;94636.81;5015382;28;20068;-62
2022/03/14 09:55:07;;;;;;;206.45;170.88;;;;;;;15.35;30.05;94634.56;5007065;28;20068;-62
2022/03/14 09:57:34;;;;;;;205.00;168.18;;;;;;;15.35;29.99;94623.78;5014764;28;20053;-62
2022/03/14 10:00:00;;;;;;;214.35;174.82;;;;;;;15.30;30.33;94624.28;5009062;28;20111;-62
2022/03/14 10:02:26;;;;;;;201.77;166.80;;;;;;;15.32;30.19;94632.69;5009316;28;20046;-61
2022/03/14 10:04:52;;;;;;;204.57;168.88;;;;;;;15.35;29.95;94638.00;5019841;28;20042;-62
2022/03/14 10:07:19;;;;;;;208.00;169.85;;;;;;;15.31;30.20;94636.56;5009418;28;20048;-62
2022/03/14 10:09:44;;;;;;;207.20;170.40;;;;;;;15.31;29.81;94634.63;5016618;28;20151;-61
2022/03/14 10:12:12;;;;;;;210.70;175.55;;;;;;;15.33;30.07;94634.97;5017678;28;20510;-62
2022/03/14 10:14:38;;;;;;;208.57;169.85;;;;;;;15.38;29.86;94634.47;5006093;28;20143;-61
2022/03/14 10:17:04;;;;;;;208.05;175.20;;;;;;;15.35;29.71;94634.56;5014393;28;20053;-61
2022/03/14 10:19:31;;;;;;;208.23;171.93;;;;;;;15.33;29.99;94632.28;5019088;28;20049;-63
2022/03/14 10:22:13;;;;;;;207.50;173.50;;;;;;;15.33;29.94;94637.66;5026462;28;20041;-62
2022/03/14 10:24:39;;;;;;;214.18;177.65;;;;;;;15.34;29.88;94630.34;5008782;28;20042;-62
2022/03/14 10:27:05;;;;;;;205.60;169.88;;;;;;;15.35;30.01;94638.00;5010037;28;20180;-62
2022/03/14 10:29:31;;;;;;;208.02;174.93;;;;;;;15.32;30.03;94648.88;5018737;28;20056;-62
2022/03/14 10:31:57;;;;;;;201.57;170.55;;;;;;;15.30;30.09;94635.81;5013627;28;20483;-62
2022/03/14 10:34:24;;;;;;;207.60;171.98;;;;;;;15.28;30.12;94632.78;5006311;28;20250;-62
2022/03/14 10:36:49;;;;;;;208.27;173.55;;;;;;;15.30;30.07;94641.22;5014464;28;20054;-63
2022/03/14 10:39:22;;;;;;;207.48;173.63;;;;;;;15.31;30.02;94636.56;5014173;28;20049;-62
2022/03/14 10:42:05;;;;;;;207.52;172.90;;;;;;;15.39;29.63;94640.63;5018545;28;20045;-63
2022/03/14 10:44:31;;;;;;;208.07;173.88;;;;;;;15.41;29.58;94646.34;5006738;28;20482;-62
2022/03/14 10:46:59;;;;;;;209.25;176.18;;;;;;;15.42;29.62;94642.47;5014159;28;20033;-62
2022/03/14 10:49:29;;;;;;;207.77;174.30;;;;;;;15.41;29.60;94636.31;5018974;28;20552;-61
2022/03/14 10:51:55;;;;;;;204.27;171.02;;;;;;;15.37;29.78;94645.66;5011022;28;20178;-63
2022/03/14 10:54:21;;;;;;;209.85;177.13;;;;;;;15.32;29.61;94635.41;5009961;28;20041;-63
2022/03/14 10:57:11;;;;;;;207.07;172.05;;;;;;;15.34;29.79;94641.88;5015773;28;20092;-61
2022/03/14 10:59:40;;;;;;;219.20;181.65;;;;;;;15.33;29.73;94637.66;5021392;28;20042;-61